Keswick, Canada
Current Conditions -  °F | °C
As of 3:09 AM on Friday 28 Nov 2014 (Local Time) from CYBN Reporting Station
Broken Clouds Broken Clouds  
Wind Chill:   Ceiling: 2700
Heat Index: 18°   Visibility: 9mi
Dew Point: 14°   Wind: 7mph
Humidity: 86%   Direction: 300°WNW
Pressure: 30.16"   Gusts: NA
Location:  44.24°N, 79.47°W
Report Text: CYBN 280809Z AUTO 30006KT 9SM BKN027 M08/M10 A3016
Loading
Personal Weather Stations






























Interactive Weather Map New forecast layout! Learn more

10-Day Weather Forecast

Advertisements
Track Severe Weather on mobile